sensor_id;sensor_type;location;lat;lon;timestamp;temperature;humidity
2579;DHT22;1299;48.282;14.398;2022-11-25T00:00:16;5.40;99.90
2579;DHT22;1299;48.282;14.398;2022-11-25T00:02:43;5.40;99.90
2579;DHT22;1299;48.282;14.398;2022-11-25T00:05:11;5.50;99.90
2579;DHT22;1299;48.282;14.398;2022-11-25T00:07:38;5.30;99.90
2579;DHT22;1299;48.282;14.398;2022-11-25T00:10:07;5.30;99.90
2579;DHT22;1299;48.282;14.398;2022-11-25T00:12:34;5.20;99.90
2579;DHT22;1299;48.282;14.398;2022-11-25T00:15:02;5.20;99.90
2579;DHT22;1299;48.282;14.398;2022-11-25T00:17:29;5.10;99.90
2579;DHT22;1299;48.282;14.398;2022-11-25T00:19:56;5.00;99.90
2579;DHT22;1299;48.282;14.398;2022-11-25T00:22:26;4.90;99.90
2579;DHT22;1299;48.282;14.398;2022-11-25T00:24:53;4.90;99.90
2579;DHT22;1299;48.282;14.398;2022-11-25T00:27:22;4.90;99.90
2579;DHT22;1299;48.282;14.398;2022-11-25T00:29:49;5.00;99.90
2579;DHT22;1299;48.282;14.398;2022-11-25T00:32:16;5.00;99.90
2579;DHT22;1299;48.282;14.398;2022-11-25T00:34:44;5.00;99.90
2579;DHT22;1299;48.282;14.398;2022-11-25T00:37:11;5.00;99.90
2579;DHT22;1299;48.282;14.398;2022-11-25T00:39:38;4.90;99.90
2579;DHT22;1299;48.282;14.398;2022-11-25T00:42:05;4.80;99.90
2579;DHT22;1299;48.282;14.398;2022-11-25T00:44:51;4.70;99.90
2579;DHT22;1299;48.282;14.398;2022-11-25T00:47:19;4.60;99.90
2579;DHT22;1299;48.282;14.398;2022-11-25T00:49:49;4.70;99.90
2579;DHT22;1299;48.282;14.398;2022-11-25T00:52:19;4.60;99.90
2579;DHT22;1299;48.282;14.398;2022-11-25T00:54:48;4.70;99.90
2579;DHT22;1299;48.282;14.398;2022-11-25T00:57:16;4.60;99.90
2579;DHT22;1299;48.282;14.398;2022-11-25T00:59:44;4.60;99.90
2579;DHT22;1299;48.282;14.398;2022-11-25T01:02:14;4.70;99.90
2579;DHT22;1299;48.282;14.398;2022-11-25T01:04:42;4.80;99.90
2579;DHT22;1299;48.282;14.398;2022-11-25T01:07:09;4.80;99.90
2579;DHT22;1299;48.282;14.398;2022-11-25T01:09:36;4.80;99.90
2579;DHT22;1299;48.282;14.398;2022-11-25T01:12:04;4.70;99.90
2579;DHT22;1299;48.282;14.398;2022-11-25T01:14:32;4.70;99.90
2579;DHT22;1299;48.282;14.398;2022-11-25T01:17:00;4.60;99.90
2579;DHT22;1299;48.282;14.398;2022-11-25T01:19:28;4.70;99.90
2579;DHT22;1299;48.282;14.398;2022-11-25T01:21:55;4.70;99.90
2579;DHT22;1299;48.282;14.398;2022-11-25T01:24:23;4.70;99.90
2579;DHT22;1299;48.282;14.398;2022-11-25T01:26:53;4.50;99.90
2579;DHT22;1299;48.282;14.398;2022-11-25T01:29:21;4.70;99.90
2579;DHT22;1299;48.282;14.398;2022-11-25T01:31:49;4.70;99.90
2579;DHT22;1299;48.282;14.398;2022-11-25T01:34:18;4.70;99.90
2579;DHT22;1299;48.282;14.398;2022-11-25T01:36:47;4.80;99.90
2579;DHT22;1299;48.282;14.398;2022-11-25T01:39:18;4.70;99.90
2579;DHT22;1299;48.282;14.398;2022-11-25T01:41:46;4.60;99.90
2579;DHT22;1299;48.282;14.398;2022-11-25T01:44:15;4.60;99.90
2579;DHT22;1299;48.282;14.398;2022-11-25T01:46:53;4.60;99.90
2579;DHT22;1299;48.282;14.398;2022-11-25T01:49:26;4.60;99.90
2579;DHT22;1299;48.282;14.398;2022-11-25T01:52:00;4.50;99.90
2579;DHT22;1299;48.282;14.398;2022-11-25T01:54:32;4.40;99.90
2579;DHT22;1299;48.282;14.398;2022-11-25T01:57:04;4.20;99.90
2579;DHT22;1299;48.282;14.398;2022-11-25T01:59:33;4.10;99.90
2579;DHT22;1299;48.282;14.398;2022-11-25T02:02:04;4.10;99.90
2579;DHT22;1299;48.282;14.398;2022-11-25T02:04:33;4.00;99.90
2579;DHT22;1299;48.282;14.398;2022-11-25T02:07:08;4.00;99.90
2579;DHT22;1299;48.282;14.398;2022-11-25T02:09:39;4.00;99.90
2579;DHT22;1299;48.282;14.398;2022-11-25T02:12:08;4.00;99.90
2579;DHT22;1299;48.282;14.398;2022-11-25T02:14:36;4.00;99.90
2579;DHT22;1299;48.282;14.398;2022-11-25T02:17:03;4.00;99.90
2579;DHT22;1299;48.282;14.398;2022-11-25T02:19:40;4.00;99.90
2579;DHT22;1299;48.282;14.398;2022-11-25T02:22:26;4.10;99.90
2579;DHT22;1299;48.282;14.398;2022-11-25T02:25:00;4.10;99.90
2579;DHT22;1299;48.282;14.398;2022-11-25T02:27:30;4.10;99.90
2579;DHT22;1299;48.282;14.398;2022-11-25T02:29:57;4.10;99.90
2579;DHT22;1299;48.282;14.398;2022-11-25T02:32:24;4.10;99.90
2579;DHT22;1299;48.282;14.398;2022-11-25T02:34:52;3.90;99.90
2579;DHT22;1299;48.282;14.398;2022-11-25T02:37:20;3.90;99.90
2579;DHT22;1299;48.282;14.398;2022-11-25T02:39:50;3.80;99.90
2579;DHT22;1299;48.282;14.398;2022-11-25T02:42:20;3.70;99.90
2579;DHT22;1299;48.282;14.398;2022-11-25T02:44:49;3.70;99.90
2579;DHT22;1299;48.282;14.398;2022-11-25T02:47:17;3.70;99.90
2579;DHT22;1299;48.282;14.398;2022-11-25T02:49:44;3.70;99.90
2579;DHT22;1299;48.282;14.398;2022-11-25T02:52:11;3.80;99.90
2579;DHT22;1299;48.282;14.398;2022-11-25T02:54:38;3.80;99.90
2579;DHT22;1299;48.282;14.398;2022-11-25T02:57:06;3.70;99.90
2579;DHT22;1299;48.282;14.398;2022-11-25T02:59:33;3.60;99.90
2579;DHT22;1299;48.282;14.398;2022-11-25T03:02:01;3.60;99.90
2579;DHT22;1299;48.282;14.398;2022-11-25T03:04:29;3.50;99.90
2579;DHT22;1299;48.282;14.398;2022-11-25T03:06:56;3.50;99.90
2579;DHT22;1299;48.282;14.398;2022-11-25T03:09:24;3.60;99.90
2579;DHT22;1299;48.282;14.398;2022-11-25T03:11:51;3.50;99.90
2579;DHT22;1299;48.282;14.398;2022-11-25T03:14:35;3.50;99.90
2579;DHT22;1299;48.282;14.398;2022-11-25T03:17:03;3.50;99.90
2579;DHT22;1299;48.282;14.398;2022-11-25T03:19:31;3.50;99.90
2579;DHT22;1299;48.282;14.398;2022-11-25T03:21:58;3.40;99.90
2579;DHT22;1299;48.282;14.398;2022-11-25T03:24:25;3.40;99.90
2579;DHT22;1299;48.282;14.398;2022-11-25T03:26:53;3.40;99.90
2579;DHT22;1299;48.282;14.398;2022-11-25T03:29:20;3.30;99.90
2579;DHT22;1299;48.282;14.398;2022-11-25T03:31:47;3.30;99.90
2579;DHT22;1299;48.282;14.398;2022-11-25T03:34:15;3.20;99.90
2579;DHT22;1299;48.282;14.398;2022-11-25T03:36:43;3.20;99.90
2579;DHT22;1299;48.282;14.398;2022-11-25T03:39:10;3.20;99.90
2579;DHT22;1299;48.282;14.398;2022-11-25T03:41:37;3.20;99.90
2579;DHT22;1299;48.282;14.398;2022-11-25T03:44:05;3.10;99.90
2579;DHT22;1299;48.282;14.398;2022-11-25T03:46:32;3.10;99.90
2579;DHT22;1299;48.282;14.398;2022-11-25T03:48:59;3.00;99.90
2579;DHT22;1299;48.282;14.398;2022-11-25T03:51:28;3.10;99.90
2579;DHT22;1299;48.282;14.398;2022-11-25T03:53:55;3.00;99.90
2579;DHT22;1299;48.282;14.398;2022-11-25T03:56:22;2.90;99.90
2579;DHT22;1299;48.282;14.398;2022-11-25T03:58:49;3.00;99.90
2579;DHT22;1299;48.282;14.398;2022-11-25T04:01:17;2.80;99.90
2579;DHT22;1299;48.282;14.398;2022-11-25T04:03:44;2.60;99.90
2579;DHT22;1299;48.282;14.398;2022-11-25T04:06:11;2.80;99.90
2579;DHT22;1299;48.282;14.398;2022-11-25T04:08:40;3.00;99.90
2579;DHT22;1299;48.282;14.398;2022-11-25T04:11:07;3.10;99.90
2579;DHT22;1299;48.282;14.398;2022-11-25T04:13:34;3.10;99.90
2579;DHT22;1299;48.282;14.398;2022-11-25T04:16:00;3.10;99.90
2579;DHT22;1299;48.282;14.398;2022-11-25T04:18:28;3.10;99.90
2579;DHT22;1299;48.282;14.398;2022-11-25T04:20:55;3.00;99.90
2579;DHT22;1299;48.282;14.398;2022-11-25T04:23:23;3.00;99.90
2579;DHT22;1299;48.282;14.398;2022-11-25T04:25:51;3.00;99.90
2579;DHT22;1299;48.282;14.398;2022-11-25T04:28:18;2.80;99.90
2579;DHT22;1299;48.282;14.398;2022-11-25T04:30:46;2.90;99.90
2579;DHT22;1299;48.282;14.398;2022-11-25T04:33:13;2.80;99.90
2579;DHT22;1299;48.282;14.398;2022-11-25T04:35:40;2.90;99.90
2579;DHT22;1299;48.282;14.398;2022-11-25T04:38:07;2.90;99.90
2579;DHT22;1299;48.282;14.398;2022-11-25T04:40:34;2.80;99.90
2579;DHT22;1299;48.282;14.398;2022-11-25T04:43:03;2.90;99.90
2579;DHT22;1299;48.282;14.398;2022-11-25T04:45:30;2.90;99.90
2579;DHT22;1299;48.282;14.398;2022-11-25T04:47:57;3.00;99.90
2579;DHT22;1299;48.282;14.398;2022-11-25T04:50:25;2.90;99.90
2579;DHT22;1299;48.282;14.398;2022-11-25T04:52:52;3.00;99.90
2579;DHT22;1299;48.282;14.398;2022-11-25T04:55:19;2.90;99.90
2579;DHT22;1299;48.282;14.398;2022-11-25T04:57:46;2.90;99.90
2579;DHT22;1299;48.282;14.398;2022-11-25T05:00:16;2.90;99.90
2579;DHT22;1299;48.282;14.398;2022-11-25T05:02:42;2.90;99.90
2579;DHT22;1299;48.282;14.398;2022-11-25T05:05:10;2.80;99.90
2579;DHT22;1299;48.282;14.398;2022-11-25T05:07:38;2.80;99.90
2579;DHT22;1299;48.282;14.398;2022-11-25T05:10:06;2.90;99.90
2579;DHT22;1299;48.282;14.398;2022-11-25T05:12:34;2.90;99.90
2579;DHT22;1299;48.282;14.398;2022-11-25T05:15:02;2.90;99.90
2579;DHT22;1299;48.282;14.398;2022-11-25T05:17:32;2.90;99.90
2579;DHT22;1299;48.282;14.398;2022-11-25T05:19:59;2.80;99.90
2579;DHT22;1299;48.282;14.398;2022-11-25T05:22:29;2.80;99.90
2579;DHT22;1299;48.282;14.398;2022-11-25T05:24:57;2.80;99.90
2579;DHT22;1299;48.282;14.398;2022-11-25T05:27:26;2.80;99.90
2579;DHT22;1299;48.282;14.398;2022-11-25T05:29:53;2.80;99.90
2579;DHT22;1299;48.282;14.398;2022-11-25T05:32:20;2.80;99.90
2579;DHT22;1299;48.282;14.398;2022-11-25T05:34:49;2.80;99.90
2579;DHT22;1299;48.282;14.398;2022-11-25T05:37:16;2.70;99.90
2579;DHT22;1299;48.282;14.398;2022-11-25T05:39:43;2.80;99.90
2579;DHT22;1299;48.282;14.398;2022-11-25T05:42:11;2.70;99.90
2579;DHT22;1299;48.282;14.398;2022-11-25T05:44:38;2.70;99.90
2579;DHT22;1299;48.282;14.398;2022-11-25T05:47:05;2.70;99.90
2579;DHT22;1299;48.282;14.398;2022-11-25T05:49:32;2.70;99.90
2579;DHT22;1299;48.282;14.398;2022-11-25T05:52:01;2.70;99.90
2579;DHT22;1299;48.282;14.398;2022-11-25T05:54:28;2.70;99.90
2579;DHT22;1299;48.282;14.398;2022-11-25T05:56:56;2.80;99.90
2579;DHT22;1299;48.282;14.398;2022-11-25T05:59:23;2.80;99.90
2579;DHT22;1299;48.282;14.398;2022-11-25T06:01:51;2.80;99.90
2579;DHT22;1299;48.282;14.398;2022-11-25T06:04:19;2.70;99.90
2579;DHT22;1299;48.282;14.398;2022-11-25T06:06:46;2.70;99.90
2579;DHT22;1299;48.282;14.398;2022-11-25T06:09:15;2.80;99.90
2579;DHT22;1299;48.282;14.398;2022-11-25T06:11:42;2.80;99.90
2579;DHT22;1299;48.282;14.398;2022-11-25T06:14:09;2.70;99.90
2579;DHT22;1299;48.282;14.398;2022-11-25T06:16:39;2.80;99.90
2579;DHT22;1299;48.282;14.398;2022-11-25T06:19:07;2.80;99.90
2579;DHT22;1299;48.282;14.398;2022-11-25T06:21:34;2.80;99.90
2579;DHT22;1299;48.282;14.398;2022-11-25T06:24:03;2.80;99.90
2579;DHT22;1299;48.282;14.398;2022-11-25T06:26:31;2.80;99.90
2579;DHT22;1299;48.282;14.398;2022-11-25T06:28:59;2.80;99.90
2579;DHT22;1299;48.282;14.398;2022-11-25T06:31:26;2.70;99.90
2579;DHT22;1299;48.282;14.398;2022-11-25T06:33:53;2.90;99.90
2579;DHT22;1299;48.282;14.398;2022-11-25T06:36:21;2.90;99.90
2579;DHT22;1299;48.282;14.398;2022-11-25T06:38:50;2.90;99.90
2579;DHT22;1299;48.282;14.398;2022-11-25T06:41:18;2.50;99.90
2579;DHT22;1299;48.282;14.398;2022-11-25T06:43:47;2.60;99.90
2579;DHT22;1299;48.282;14.398;2022-11-25T06:46:16;2.60;99.90
2579;DHT22;1299;48.282;14.398;2022-11-25T06:48:44;2.70;99.90
2579;DHT22;1299;48.282;14.398;2022-11-25T06:51:13;2.90;99.90
2579;DHT22;1299;48.282;14.398;2022-11-25T06:53:41;3.10;99.90
2579;DHT22;1299;48.282;14.398;2022-11-25T06:56:10;3.40;99.90
2579;DHT22;1299;48.282;14.398;2022-11-25T06:58:39;3.90;99.90
2579;DHT22;1299;48.282;14.398;2022-11-25T07:01:11;5.00;99.90
2579;DHT22;1299;48.282;14.398;2022-11-25T07:03:39;5.60;99.90
2579;DHT22;1299;48.282;14.398;2022-11-25T07:06:06;6.30;99.90
2579;DHT22;1299;48.282;14.398;2022-11-25T07:08:35;7.40;99.90
2579;DHT22;1299;48.282;14.398;2022-11-25T07:11:03;7.80;99.90
2579;DHT22;1299;48.282;14.398;2022-11-25T07:13:31;7.70;99.90
2579;DHT22;1299;48.282;14.398;2022-11-25T07:16:01;7.20;99.90
2579;DHT22;1299;48.282;14.398;2022-11-25T07:18:32;6.40;99.90
2579;DHT22;1299;48.282;14.398;2022-11-25T07:21:05;5.70;99.90
2579;DHT22;1299;48.282;14.398;2022-11-25T07:23:33;5.20;99.90
2579;DHT22;1299;48.282;14.398;2022-11-25T07:26:02;4.90;99.90
2579;DHT22;1299;48.282;14.398;2022-11-25T07:28:29;4.70;99.90
2579;DHT22;1299;48.282;14.398;2022-11-25T07:31:04;4.60;99.90
2579;DHT22;1299;48.282;14.398;2022-11-25T07:33:33;4.60;99.90
2579;DHT22;1299;48.282;14.398;2022-11-25T07:36:02;4.70;99.90
2579;DHT22;1299;48.282;14.398;2022-11-25T07:38:30;4.70;99.90
2579;DHT22;1299;48.282;14.398;2022-11-25T07:41:03;4.50;99.90
2579;DHT22;1299;48.282;14.398;2022-11-25T07:43:31;4.30;99.90
2579;DHT22;1299;48.282;14.398;2022-11-25T07:46:08;4.20;99.90
2579;DHT22;1299;48.282;14.398;2022-11-25T07:48:37;4.10;99.90
2579;DHT22;1299;48.282;14.398;2022-11-25T07:51:05;4.00;99.90
2579;DHT22;1299;48.282;14.398;2022-11-25T07:53:39;3.90;99.90
2579;DHT22;1299;48.282;14.398;2022-11-25T07:56:06;4.20;99.90
2579;DHT22;1299;48.282;14.398;2022-11-25T07:58:34;4.40;99.90
2579;DHT22;1299;48.282;14.398;2022-11-25T08:01:01;4.50;99.90
2579;DHT22;1299;48.282;14.398;2022-11-25T08:03:31;4.30;99.90
2579;DHT22;1299;48.282;14.398;2022-11-25T08:06:01;4.50;99.90
2579;DHT22;1299;48.282;14.398;2022-11-25T08:08:28;4.50;99.90
2579;DHT22;1299;48.282;14.398;2022-11-25T08:10:56;4.60;99.90
2579;DHT22;1299;48.282;14.398;2022-11-25T08:13:23;4.60;99.90
2579;DHT22;1299;48.282;14.398;2022-11-25T08:15:51;4.60;99.90
2579;DHT22;1299;48.282;14.398;2022-11-25T08:18:18;4.50;99.90
2579;DHT22;1299;48.282;14.398;2022-11-25T08:20:45;4.40;99.90
2579;DHT22;1299;48.282;14.398;2022-11-25T08:23:14;4.60;99.90
2579;DHT22;1299;48.282;14.398;2022-11-25T08:25:41;4.70;99.90
2579;DHT22;1299;48.282;14.398;2022-11-25T08:28:09;4.80;99.90
2579;DHT22;1299;48.282;14.398;2022-11-25T08:30:36;4.60;99.90
2579;DHT22;1299;48.282;14.398;2022-11-25T08:33:03;4.80;99.90
2579;DHT22;1299;48.282;14.398;2022-11-25T08:35:32;5.00;99.90
2579;DHT22;1299;48.282;14.398;2022-11-25T08:38:03;5.20;99.90
2579;DHT22;1299;48.282;14.398;2022-11-25T08:40:34;5.40;99.90
2579;DHT22;1299;48.282;14.398;2022-11-25T08:43:03;5.50;99.90
2579;DHT22;1299;48.282;14.398;2022-11-25T08:45:30;5.60;99.90
2579;DHT22;1299;48.282;14.398;2022-11-25T08:47:59;5.50;99.90
2579;DHT22;1299;48.282;14.398;2022-11-25T08:50:26;5.70;99.90
2579;DHT22;1299;48.282;14.398;2022-11-25T08:52:53;5.60;99.90
2579;DHT22;1299;48.282;14.398;2022-11-25T08:55:20;5.80;99.90
2579;DHT22;1299;48.282;14.398;2022-11-25T08:57:53;5.70;99.90
2579;DHT22;1299;48.282;14.398;2022-11-25T09:00:21;5.20;99.90
2579;DHT22;1299;48.282;14.398;2022-11-25T09:02:48;5.10;99.90
2579;DHT22;1299;48.282;14.398;2022-11-25T09:05:16;4.90;99.90
2579;DHT22;1299;48.282;14.398;2022-11-25T09:07:43;5.00;99.90
2579;DHT22;1299;48.282;14.398;2022-11-25T09:10:14;5.10;99.90
2579;DHT22;1299;48.282;14.398;2022-11-25T09:12:41;5.20;99.90
2579;DHT22;1299;48.282;14.398;2022-11-25T09:15:11;4.80;99.90
2579;DHT22;1299;48.282;14.398;2022-11-25T09:17:38;5.00;99.90
2579;DHT22;1299;48.282;14.398;2022-11-25T09:20:06;4.50;99.90
2579;DHT22;1299;48.282;14.398;2022-11-25T09:22:33;4.60;99.90
2579;DHT22;1299;48.282;14.398;2022-11-25T09:25:01;4.80;99.90
2579;DHT22;1299;48.282;14.398;2022-11-25T09:27:29;4.90;99.90
2579;DHT22;1299;48.282;14.398;2022-11-25T09:29:57;5.10;99.90
2579;DHT22;1299;48.282;14.398;2022-11-25T09:32:26;5.10;99.90
2579;DHT22;1299;48.282;14.398;2022-11-25T09:34:55;5.20;99.90
2579;DHT22;1299;48.282;14.398;2022-11-25T09:37:22;5.30;99.90
2579;DHT22;1299;48.282;14.398;2022-11-25T09:39:52;5.30;99.90
2579;DHT22;1299;48.282;14.398;2022-11-25T09:42:28;5.40;99.90
2579;DHT22;1299;48.282;14.398;2022-11-25T09:45:20;5.50;99.90
2579;DHT22;1299;48.282;14.398;2022-11-25T09:48:20;5.50;99.90
2579;DHT22;1299;48.282;14.398;2022-11-25T09:50:57;5.60;99.90
2579;DHT22;1299;48.282;14.398;2022-11-25T09:53:38;5.50;99.90
2579;DHT22;1299;48.282;14.398;2022-11-25T09:56:13;5.30;99.90
2579;DHT22;1299;48.282;14.398;2022-11-25T09:58:50;5.60;99.90
2579;DHT22;1299;48.282;14.398;2022-11-25T10:01:23;5.70;99.90
2579;DHT22;1299;48.282;14.398;2022-11-25T10:03:57;5.70;99.90
2579;DHT22;1299;48.282;14.398;2022-11-25T10:06:28;5.30;99.90
2579;DHT22;1299;48.282;14.398;2022-11-25T10:08:58;5.40;99.90
2579;DHT22;1299;48.282;14.398;2022-11-25T10:11:34;5.80;99.90
2579;DHT22;1299;48.282;14.398;2022-11-25T10:14:14;6.00;99.90
2579;DHT22;1299;48.282;14.398;2022-11-25T10:16:48;6.20;99.90
2579;DHT22;1299;48.282;14.398;2022-11-25T10:19:25;6.10;99.90
2579;DHT22;1299;48.282;14.398;2022-11-25T10:21:56;6.10;99.90
2579;DHT22;1299;48.282;14.398;2022-11-25T10:24:24;6.00;99.90
2579;DHT22;1299;48.282;14.398;2022-11-25T10:26:56;6.00;99.90
2579;DHT22;1299;48.282;14.398;2022-11-25T10:29:27;6.10;99.90
2579;DHT22;1299;48.282;14.398;2022-11-25T10:32:02;6.30;99.90
2579;DHT22;1299;48.282;14.398;2022-11-25T10:34:39;6.30;99.90
2579;DHT22;1299;48.282;14.398;2022-11-25T10:37:13;6.00;99.90
2579;DHT22;1299;48.282;14.398;2022-11-25T10:39:44;6.10;99.90
2579;DHT22;1299;48.282;14.398;2022-11-25T10:42:14;6.40;99.90
2579;DHT22;1299;48.282;14.398;2022-11-25T10:44:44;6.60;99.90
2579;DHT22;1299;48.282;14.398;2022-11-25T10:47:25;6.60;99.90
2579;DHT22;1299;48.282;14.398;2022-11-25T10:50:16;6.40;99.90
2579;DHT22;1299;48.282;14.398;2022-11-25T10:52:49;6.30;99.90
2579;DHT22;1299;48.282;14.398;2022-11-25T10:55:22;6.30;99.90
2579;DHT22;1299;48.282;14.398;2022-11-25T10:57:51;6.30;99.90
2579;DHT22;1299;48.282;14.398;2022-11-25T11:00:31;6.50;99.90
2579;DHT22;1299;48.282;14.398;2022-11-25T11:03:11;6.30;99.90
2579;DHT22;1299;48.282;14.398;2022-11-25T11:05:46;6.40;99.90
2579;DHT22;1299;48.282;14.398;2022-11-25T11:08:19;6.30;99.90
2579;DHT22;1299;48.282;14.398;2022-11-25T11:10:47;6.30;99.90
2579;DHT22;1299;48.282;14.398;2022-11-25T11:13:30;6.40;99.90
2579;DHT22;1299;48.282;14.398;2022-11-25T11:15:58;6.60;99.90
2579;DHT22;1299;48.282;14.398;2022-11-25T11:18:27;6.80;99.90
2579;DHT22;1299;48.282;14.398;2022-11-25T11:20:58;6.90;99.90
2579;DHT22;1299;48.282;14.398;2022-11-25T11:23:28;6.70;99.90
2579;DHT22;1299;48.282;14.398;2022-11-25T11:26:00;7.00;99.90
2579;DHT22;1299;48.282;14.398;2022-11-25T11:28:37;7.10;99.90
2579;DHT22;1299;48.282;14.398;2022-11-25T11:31:07;6.90;99.90
2579;DHT22;1299;48.282;14.398;2022-11-25T11:33:47;6.90;99.90
2579;DHT22;1299;48.282;14.398;2022-11-25T11:36:39;7.00;99.90
2579;DHT22;1299;48.282;14.398;2022-11-25T11:39:28;7.20;99.90
2579;DHT22;1299;48.282;14.398;2022-11-25T11:42:06;7.40;99.90
2579;DHT22;1299;48.282;14.398;2022-11-25T11:44:42;7.70;99.90
2579;DHT22;1299;48.282;14.398;2022-11-25T11:47:20;7.80;99.90
2579;DHT22;1299;48.282;14.398;2022-11-25T11:50:19;7.50;99.90
2579;DHT22;1299;48.282;14.398;2022-11-25T11:52:56;7.60;99.90
2579;DHT22;1299;48.282;14.398;2022-11-25T11:55:56;7.40;99.90
2579;DHT22;1299;48.282;14.398;2022-11-25T11:58:46;7.30;99.90
2579;DHT22;1299;48.282;14.398;2022-11-25T12:01:28;7.30;99.90
2579;DHT22;1299;48.282;14.398;2022-11-25T12:04:11;7.30;99.90
2579;DHT22;1299;48.282;14.398;2022-11-25T12:06:41;7.30;99.90
2579;DHT22;1299;48.282;14.398;2022-11-25T12:09:14;7.50;99.90
2579;DHT22;1299;48.282;14.398;2022-11-25T12:11:48;7.40;99.90
2579;DHT22;1299;48.282;14.398;2022-11-25T12:14:29;7.30;99.90
2579;DHT22;1299;48.282;14.398;2022-11-25T12:17:00;7.30;99.90
2579;DHT22;1299;48.282;14.398;2022-11-25T12:19:35;7.10;99.90
2579;DHT22;1299;48.282;14.398;2022-11-25T12:22:08;7.00;99.90
2579;DHT22;1299;48.282;14.398;2022-11-25T12:24:43;7.10;99.90
2579;DHT22;1299;48.282;14.398;2022-11-25T12:27:15;6.90;99.90
2579;DHT22;1299;48.282;14.398;2022-11-25T12:29:48;6.90;99.90
2579;DHT22;1299;48.282;14.398;2022-11-25T12:32:34;6.80;99.90
2579;DHT22;1299;48.282;14.398;2022-11-25T12:35:18;6.90;99.90
2579;DHT22;1299;48.282;14.398;2022-11-25T12:37:56;7.20;99.90
2579;DHT22;1299;48.282;14.398;2022-11-25T12:40:32;7.30;99.90
2579;DHT22;1299;48.282;14.398;2022-11-25T12:43:10;7.20;99.90
2579;DHT22;1299;48.282;14.398;2022-11-25T12:45:40;7.30;99.90
2579;DHT22;1299;48.282;14.398;2022-11-25T12:48:09;7.30;99.90
2579;DHT22;1299;48.282;14.398;2022-11-25T12:50:46;7.20;99.90
2579;DHT22;1299;48.282;14.398;2022-11-25T12:53:25;7.00;99.90
2579;DHT22;1299;48.282;14.398;2022-11-25T12:55:57;7.20;99.90
2579;DHT22;1299;48.282;14.398;2022-11-25T12:58:43;7.10;99.90
2579;DHT22;1299;48.282;14.398;2022-11-25T13:01:35;7.30;99.90
2579;DHT22;1299;48.282;14.398;2022-11-25T13:04:40;7.40;99.90
2579;DHT22;1299;48.282;14.398;2022-11-25T13:07:25;7.50;99.90
2579;DHT22;1299;48.282;14.398;2022-11-25T13:10:22;7.50;99.90
2579;DHT22;1299;48.282;14.398;2022-11-25T13:13:16;7.50;99.90
2579;DHT22;1299;48.282;14.398;2022-11-25T13:15:45;7.40;99.90
2579;DHT22;1299;48.282;14.398;2022-11-25T13:18:15;7.50;99.90
2579;DHT22;1299;48.282;14.398;2022-11-25T13:20:46;7.50;99.90
2579;DHT22;1299;48.282;14.398;2022-11-25T13:23:23;7.60;99.90
2579;DHT22;1299;48.282;14.398;2022-11-25T13:25:53;7.50;99.90
2579;DHT22;1299;48.282;14.398;2022-11-25T13:28:44;7.50;99.90
2579;DHT22;1299;48.282;14.398;2022-11-25T13:31:21;7.50;99.90
2579;DHT22;1299;48.282;14.398;2022-11-25T13:34:07;7.40;99.90
2579;DHT22;1299;48.282;14.398;2022-11-25T13:36:46;7.30;99.90
2579;DHT22;1299;48.282;14.398;2022-11-25T13:39:19;7.20;99.90
2579;DHT22;1299;48.282;14.398;2022-11-25T13:42:02;7.10;99.90
2579;DHT22;1299;48.282;14.398;2022-11-25T13:44:35;7.10;99.90
2579;DHT22;1299;48.282;14.398;2022-11-25T13:47:31;7.10;99.90
2579;DHT22;1299;48.282;14.398;2022-11-25T13:50:01;7.20;99.90
2579;DHT22;1299;48.282;14.398;2022-11-25T13:52:38;7.30;99.90
2579;DHT22;1299;48.282;14.398;2022-11-25T13:55:30;7.20;99.90
2579;DHT22;1299;48.282;14.398;2022-11-25T13:58:13;7.50;99.90
2579;DHT22;1299;48.282;14.398;2022-11-25T14:01:04;7.50;99.90
2579;DHT22;1299;48.282;14.398;2022-11-25T14:03:44;7.50;99.90
2579;DHT22;1299;48.282;14.398;2022-11-25T14:06:23;7.40;99.90
2579;DHT22;1299;48.282;14.398;2022-11-25T14:08:56;7.10;99.90
2579;DHT22;1299;48.282;14.398;2022-11-25T14:11:40;7.20;99.90
2579;DHT22;1299;48.282;14.398;2022-11-25T14:14:37;7.30;99.90
2579;DHT22;1299;48.282;14.398;2022-11-25T14:17:29;7.50;99.90
2579;DHT22;1299;48.282;14.398;2022-11-25T14:20:12;7.40;99.90
2579;DHT22;1299;48.282;14.398;2022-11-25T14:25:47;7.30;99.90
2579;DHT22;1299;48.282;14.398;2022-11-25T14:28:24;7.40;99.90
2579;DHT22;1299;48.282;14.398;2022-11-25T14:30:55;7.50;99.90
2579;DHT22;1299;48.282;14.398;2022-11-25T14:33:32;7.60;99.90
2579;DHT22;1299;48.282;14.398;2022-11-25T14:36:02;7.30;99.90
2579;DHT22;1299;48.282;14.398;2022-11-25T14:38:38;7.40;99.90
2579;DHT22;1299;48.282;14.398;2022-11-25T14:41:12;7.30;99.90
2579;DHT22;1299;48.282;14.398;2022-11-25T14:43:46;7.30;99.90
2579;DHT22;1299;48.282;14.398;2022-11-25T14:46:16;7.20;99.90
2579;DHT22;1299;48.282;14.398;2022-11-25T14:48:52;7.10;99.90
2579;DHT22;1299;48.282;14.398;2022-11-25T14:51:21;7.20;99.90
2579;DHT22;1299;48.282;14.398;2022-11-25T14:53:51;7.10;99.90
2579;DHT22;1299;48.282;14.398;2022-11-25T14:56:25;7.40;99.90
2579;DHT22;1299;48.282;14.398;2022-11-25T14:58:54;7.40;99.90
2579;DHT22;1299;48.282;14.398;2022-11-25T15:01:24;7.40;99.90
2579;DHT22;1299;48.282;14.398;2022-11-25T15:04:01;7.50;99.90
2579;DHT22;1299;48.282;14.398;2022-11-25T15:06:36;7.60;99.90
2579;DHT22;1299;48.282;14.398;2022-11-25T15:09:18;7.60;99.90
2579;DHT22;1299;48.282;14.398;2022-11-25T15:11:46;7.60;99.90
2579;DHT22;1299;48.282;14.398;2022-11-25T15:14:20;7.50;99.90
2579;DHT22;1299;48.282;14.398;2022-11-25T15:16:49;7.60;99.90
2579;DHT22;1299;48.282;14.398;2022-11-25T15:19:20;7.70;99.90
2579;DHT22;1299;48.282;14.398;2022-11-25T15:21:55;7.80;99.90
2579;DHT22;1299;48.282;14.398;2022-11-25T15:24:24;7.60;99.90
2579;DHT22;1299;48.282;14.398;2022-11-25T15:26:53;7.30;99.90
2579;DHT22;1299;48.282;14.398;2022-11-25T15:29:21;7.30;99.90
2579;DHT22;1299;48.282;14.398;2022-11-25T15:31:50;7.30;99.90
2579;DHT22;1299;48.282;14.398;2022-11-25T15:34:21;7.50;99.90
2579;DHT22;1299;48.282;14.398;2022-11-25T15:36:49;7.60;99.90
2579;DHT22;1299;48.282;14.398;2022-11-25T15:39:23;7.60;99.90
2579;DHT22;1299;48.282;14.398;2022-11-25T15:41:53;7.60;99.90
2579;DHT22;1299;48.282;14.398;2022-11-25T15:44:24;7.50;99.90
2579;DHT22;1299;48.282;14.398;2022-11-25T15:46:56;7.20;99.90
2579;DHT22;1299;48.282;14.398;2022-11-25T15:49:27;7.10;99.90
2579;DHT22;1299;48.282;14.398;2022-11-25T15:51:58;7.10;99.90
2579;DHT22;1299;48.282;14.398;2022-11-25T15:54:30;7.20;99.90
2579;DHT22;1299;48.282;14.398;2022-11-25T15:56:59;7.40;99.90
2579;DHT22;1299;48.282;14.398;2022-11-25T15:59:49;7.40;99.90
2579;DHT22;1299;48.282;14.398;2022-11-25T16:02:38;7.40;99.90
2579;DHT22;1299;48.282;14.398;2022-11-25T16:05:47;7.30;99.90
2579;DHT22;1299;48.282;14.398;2022-11-25T16:08:32;7.20;99.90
2579;DHT22;1299;48.282;14.398;2022-11-25T16:11:12;7.20;99.90
2579;DHT22;1299;48.282;14.398;2022-11-25T16:13:45;7.20;99.90
2579;DHT22;1299;48.282;14.398;2022-11-25T16:16:20;7.10;99.90
2579;DHT22;1299;48.282;14.398;2022-11-25T16:19:09;7.10;99.90
2579;DHT22;1299;48.282;14.398;2022-11-25T16:21:55;7.10;99.90
2579;DHT22;1299;48.282;14.398;2022-11-25T16:24:33;7.10;99.90
2579;DHT22;1299;48.282;14.398;2022-11-25T16:27:03;7.10;99.90
2579;DHT22;1299;48.282;14.398;2022-11-25T16:29:33;7.20;99.90
2579;DHT22;1299;48.282;14.398;2022-11-25T16:32:15;7.20;99.90
2579;DHT22;1299;48.282;14.398;2022-11-25T16:34:43;7.30;99.90